Aérodrome :
LOGIN :

S'inscrire | Disclaimer

   EN    FR    IT 

 










Légende :    VFR   VFR Marginal   IFR   IFR Intensif   IFR Très Intensif
Visi : 
Plafond : 
>= 8 km
>= 3000ft
5 à 8 km
1000 à 3000 ft
1500m à 5 km
500 à 1000 ft
800 à 1500m
200 à 500 ft
< 800m
< 200 ft
Symboles :   Orages  Brouillard  Fortes neiges  Fortes précipitations  Vent > 20 kt
SIGMETs :   Divers  Orages  Givrage  Turbulence  Onde Orograph.  Cendres Volcan.






- Altitude de l'aérodrome : 527 ft
- Code IATA : DBV


LDDU - Dubrovnik

DERNIER METAR :
  • 291830Z VRB02KT CAVOK 09/06 Q1012 BECMG 30008KT

METARs EXPIRÉS :
  • 291800Z 04004KT 010V070 CAVOK 09/06 Q1012 BECMG 30008KT
  • 291730Z 09006KT CAVOK 08/06 Q1012 BECMG 30008KT
  • 291700Z VRB02KT CAVOK 09/06 Q1012 BECMG 30008KT
  • 291630Z 29003KT 270V330 9999 FEW044 10/07 Q1011 NOSIG
  • 291600Z VRB01KT 9999 FEW048 10/06 Q1011 TEMPO 29008KT

TAF TAF LDDU
Valide du 29 à 18h jusqu'au 30 à 18h UTC


291725Z 2918/3018 30008KT 9999 FEW020 SCT050 TX13/3012Z TN07/3005Z
TEMPO 3000/3009 02015KT
PROB30
TEMPO 3003/3011 VRB15G25KT
BECMG 3016/3018 09006KT



MET'MAP, la Météo Aéronautique d'un coup d'oeil ! - Copyright ORBIFLY Décembre 2007 - Disclaimer

ORBIFLY MET'MAP TEAM :

Programmation & Développement : Alexandra Zaïnal
Sur une idée originale de : Baudouin d'Aumeries
Assistance à la programmation : Marc-Olivier Méhu
Soutien technique & logistique : Manuel Goepfert

Contact : metmap@orbifly.com




SOURCES & CREDITS :

   NOAA